sensor_id;sensor_type;location;lat;lon;timestamp;P1;durP1;ratioP1;P2;durP2;ratioP2
59587;SDS011;45412;54.472;18.464;2022-10-04T00:02:28;6.10;;;2.20;;
59587;SDS011;45412;54.472;18.464;2022-10-04T00:05:21;6.80;;;1.80;;
59587;SDS011;45412;54.472;18.464;2022-10-04T00:11:25;6.30;;;2.20;;
59587;SDS011;45412;54.472;18.464;2022-10-04T00:14:36;7.80;;;2.90;;
59587;SDS011;45412;54.472;18.464;2022-10-04T00:17:27;8.30;;;2.40;;
59587;SDS011;45412;54.472;18.464;2022-10-04T00:29:42;8.10;;;2.20;;
59587;SDS011;45412;54.472;18.464;2022-10-04T00:38:16;7.70;;;2.30;;
59587;SDS011;45412;54.472;18.464;2022-10-04T00:41:13;6.00;;;2.10;;
59587;SDS011;45412;54.472;18.464;2022-10-04T00:44:04;8.20;;;2.20;;
59587;SDS011;45412;54.472;18.464;2022-10-04T00:47:00;6.60;;;2.20;;
59587;SDS011;45412;54.472;18.464;2022-10-04T00:53:25;6.90;;;2.30;;
59587;SDS011;45412;54.472;18.464;2022-10-04T00:56:48;6.00;;;2.10;;
59587;SDS011;45412;54.472;18.464;2022-10-04T00:59:45;6.40;;;2.20;;
59587;SDS011;45412;54.472;18.464;2022-10-04T01:05:45;5.80;;;2.20;;
59587;SDS011;45412;54.472;18.464;2022-10-04T01:08:45;7.40;;;2.40;;
59587;SDS011;45412;54.472;18.464;2022-10-04T01:11:41;6.50;;;2.00;;
59587;SDS011;45412;54.472;18.464;2022-10-04T01:17:36;6.40;;;2.50;;
59587;SDS011;45412;54.472;18.464;2022-10-04T01:20:33;8.00;;;2.40;;
59587;SDS011;45412;54.472;18.464;2022-10-04T01:29:27;7.10;;;2.40;;
59587;SDS011;45412;54.472;18.464;2022-10-04T01:32:17;6.20;;;2.10;;
59587;SDS011;45412;54.472;18.464;2022-10-04T01:35:07;9.20;;;2.30;;
59587;SDS011;45412;54.472;18.464;2022-10-04T01:37:58;6.40;;;2.40;;
59587;SDS011;45412;54.472;18.464;2022-10-04T01:40:50;6.00;;;2.30;;
59587;SDS011;45412;54.472;18.464;2022-10-04T01:43:41;7.60;;;2.10;;
59587;SDS011;45412;54.472;18.464;2022-10-04T01:46:36;8.00;;;2.20;;
59587;SDS011;45412;54.472;18.464;2022-10-04T01:49:29;6.90;;;2.50;;
59587;SDS011;45412;54.472;18.464;2022-10-04T01:52:34;8.70;;;2.90;;
59587;SDS011;45412;54.472;18.464;2022-10-04T01:55:31;6.70;;;2.60;;
59587;SDS011;45412;54.472;18.464;2022-10-04T01:58:27;9.20;;;2.50;;
59587;SDS011;45412;54.472;18.464;2022-10-04T02:04:21;7.50;;;2.60;;
59587;SDS011;45412;54.472;18.464;2022-10-04T02:07:14;7.40;;;2.20;;
59587;SDS011;45412;54.472;18.464;2022-10-04T02:10:05;6.80;;;2.50;;
59587;SDS011;45412;54.472;18.464;2022-10-04T02:12:56;7.00;;;2.40;;
59587;SDS011;45412;54.472;18.464;2022-10-04T02:15:44;11.80;;;2.60;;
59587;SDS011;45412;54.472;18.464;2022-10-04T02:18:36;7.20;;;2.60;;
59587;SDS011;45412;54.472;18.464;2022-10-04T02:21:25;8.00;;;2.60;;
59587;SDS011;45412;54.472;18.464;2022-10-04T02:24:13;9.20;;;3.30;;
59587;SDS011;45412;54.472;18.464;2022-10-04T02:27:03;8.70;;;2.80;;
59587;SDS011;45412;54.472;18.464;2022-10-04T02:29:58;7.00;;;2.70;;
59587;SDS011;45412;54.472;18.464;2022-10-04T02:32:47;7.30;;;2.70;;
59587;SDS011;45412;54.472;18.464;2022-10-04T02:35:46;6.80;;;2.90;;
59587;SDS011;45412;54.472;18.464;2022-10-04T02:38:36;7.90;;;2.80;;
59587;SDS011;45412;54.472;18.464;2022-10-04T02:44:44;7.00;;;2.60;;
59587;SDS011;45412;54.472;18.464;2022-10-04T02:48:03;7.60;;;2.70;;
59587;SDS011;45412;54.472;18.464;2022-10-04T02:51:05;8.30;;;3.40;;
59587;SDS011;45412;54.472;18.464;2022-10-04T02:57:15;8.80;;;3.00;;
59587;SDS011;45412;54.472;18.464;2022-10-04T03:00:17;9.20;;;3.20;;
59587;SDS011;45412;54.472;18.464;2022-10-04T03:06:07;7.40;;;2.80;;
59587;SDS011;45412;54.472;18.464;2022-10-04T03:09:01;6.50;;;2.60;;
59587;SDS011;45412;54.472;18.464;2022-10-04T03:11:52;7.00;;;2.70;;
59587;SDS011;45412;54.472;18.464;2022-10-04T03:14:40;10.80;;;3.30;;
59587;SDS011;45412;54.472;18.464;2022-10-04T03:17:29;8.50;;;2.80;;
59587;SDS011;45412;54.472;18.464;2022-10-04T03:20:17;8.60;;;2.80;;
59587;SDS011;45412;54.472;18.464;2022-10-04T03:23:08;8.00;;;2.80;;
59587;SDS011;45412;54.472;18.464;2022-10-04T03:29:17;7.60;;;2.40;;
59587;SDS011;45412;54.472;18.464;2022-10-04T03:32:09;7.90;;;2.50;;
59587;SDS011;45412;54.472;18.464;2022-10-04T03:35:04;7.40;;;2.70;;
59587;SDS011;45412;54.472;18.464;2022-10-04T03:38:04;7.10;;;2.10;;
59587;SDS011;45412;54.472;18.464;2022-10-04T03:40:57;8.90;;;2.50;;
59587;SDS011;45412;54.472;18.464;2022-10-04T03:43:47;7.90;;;2.70;;
59587;SDS011;45412;54.472;18.464;2022-10-04T03:46:37;8.20;;;2.30;;
59587;SDS011;45412;54.472;18.464;2022-10-04T03:49:31;7.10;;;2.70;;
59587;SDS011;45412;54.472;18.464;2022-10-04T03:52:24;8.20;;;2.40;;
59587;SDS011;45412;54.472;18.464;2022-10-04T03:55:17;6.10;;;2.40;;
59587;SDS011;45412;54.472;18.464;2022-10-04T03:58:11;8.00;;;2.30;;
59587;SDS011;45412;54.472;18.464;2022-10-04T04:04:26;6.60;;;2.70;;
59587;SDS011;45412;54.472;18.464;2022-10-04T04:07:26;8.60;;;2.20;;
59587;SDS011;45412;54.472;18.464;2022-10-04T04:10:27;9.30;;;2.90;;
59587;SDS011;45412;54.472;18.464;2022-10-04T04:13:28;10.00;;;2.90;;
59587;SDS011;45412;54.472;18.464;2022-10-04T04:16:43;6.90;;;2.30;;
59587;SDS011;45412;54.472;18.464;2022-10-04T04:19:31;7.40;;;2.40;;
59587;SDS011;45412;54.472;18.464;2022-10-04T04:22:21;7.50;;;2.20;;
59587;SDS011;45412;54.472;18.464;2022-10-04T04:25:14;7.00;;;2.40;;
59587;SDS011;45412;54.472;18.464;2022-10-04T04:31:12;6.20;;;2.10;;
59587;SDS011;45412;54.472;18.464;2022-10-04T04:34:18;6.60;;;2.40;;
59587;SDS011;45412;54.472;18.464;2022-10-04T04:37:11;7.50;;;2.20;;
59587;SDS011;45412;54.472;18.464;2022-10-04T04:40:16;8.30;;;2.30;;
59587;SDS011;45412;54.472;18.464;2022-10-04T04:43:10;9.10;;;2.40;;
59587;SDS011;45412;54.472;18.464;2022-10-04T04:46:04;7.20;;;2.10;;
59587;SDS011;45412;54.472;18.464;2022-10-04T04:49:15;7.20;;;2.20;;
59587;SDS011;45412;54.472;18.464;2022-10-04T04:52:05;8.90;;;2.50;;
59587;SDS011;45412;54.472;18.464;2022-10-04T04:55:04;9.00;;;2.40;;
59587;SDS011;45412;54.472;18.464;2022-10-04T04:58:02;7.10;;;2.30;;
59587;SDS011;45412;54.472;18.464;2022-10-04T05:00:57;6.90;;;2.20;;
59587;SDS011;45412;54.472;18.464;2022-10-04T05:04:00;7.70;;;2.50;;
59587;SDS011;45412;54.472;18.464;2022-10-04T05:09:50;9.30;;;2.40;;
59587;SDS011;45412;54.472;18.464;2022-10-04T05:12:43;6.80;;;2.60;;
59587;SDS011;45412;54.472;18.464;2022-10-04T05:15:34;7.80;;;2.30;;
59587;SDS011;45412;54.472;18.464;2022-10-04T05:18:31;6.70;;;2.10;;
59587;SDS011;45412;54.472;18.464;2022-10-04T05:21:27;7.50;;;2.40;;
59587;SDS011;45412;54.472;18.464;2022-10-04T05:27:40;7.00;;;2.60;;
59587;SDS011;45412;54.472;18.464;2022-10-04T05:30:40;8.80;;;3.40;;
59587;SDS011;45412;54.472;18.464;2022-10-04T05:46:28;6.90;;;3.00;;
59587;SDS011;45412;54.472;18.464;2022-10-04T05:49:21;8.00;;;2.60;;
59587;SDS011;45412;54.472;18.464;2022-10-04T05:52:14;7.70;;;2.70;;
59587;SDS011;45412;54.472;18.464;2022-10-04T06:23:14;7.30;;;2.40;;
59587;SDS011;45412;54.472;18.464;2022-10-04T06:26:08;8.80;;;2.40;;
59587;SDS011;45412;54.472;18.464;2022-10-04T06:29:04;6.30;;;2.30;;
59587;SDS011;45412;54.472;18.464;2022-10-04T06:38:32;7.90;;;2.70;;
59587;SDS011;45412;54.472;18.464;2022-10-04T06:48:39;6.00;;;2.00;;
59587;SDS011;45412;54.472;18.464;2022-10-04T06:55:19;7.50;;;2.50;;
59587;SDS011;45412;54.472;18.464;2022-10-04T07:02:01;7.40;;;2.40;;
59587;SDS011;45412;54.472;18.464;2022-10-04T07:05:17;8.30;;;2.30;;
59587;SDS011;45412;54.472;18.464;2022-10-04T07:11:34;6.50;;;2.10;;
59587;SDS011;45412;54.472;18.464;2022-10-04T07:14:31;11.90;;;5.20;;
59587;SDS011;45412;54.472;18.464;2022-10-04T07:17:51;7.30;;;2.70;;
59587;SDS011;45412;54.472;18.464;2022-10-04T07:20:44;6.20;;;2.30;;
59587;SDS011;45412;54.472;18.464;2022-10-04T07:23:50;9.40;;;2.70;;
59587;SDS011;45412;54.472;18.464;2022-10-04T07:26:49;10.40;;;3.60;;
59587;SDS011;45412;54.472;18.464;2022-10-04T07:29:40;8.20;;;3.20;;
59587;SDS011;45412;54.472;18.464;2022-10-04T07:32:37;8.40;;;3.20;;
59587;SDS011;45412;54.472;18.464;2022-10-04T07:35:39;8.40;;;2.80;;
59587;SDS011;45412;54.472;18.464;2022-10-04T07:38:35;6.70;;;2.30;;
59587;SDS011;45412;54.472;18.464;2022-10-04T07:41:36;6.30;;;2.10;;
59587;SDS011;45412;54.472;18.464;2022-10-04T07:44:38;6.20;;;2.10;;
59587;SDS011;45412;54.472;18.464;2022-10-04T07:47:30;7.00;;;2.20;;
59587;SDS011;45412;54.472;18.464;2022-10-04T07:50:29;7.20;;;2.10;;
59587;SDS011;45412;54.472;18.464;2022-10-04T07:56:45;6.10;;;1.90;;
59587;SDS011;45412;54.472;18.464;2022-10-04T08:06:42;5.40;;;1.80;;
59587;SDS011;45412;54.472;18.464;2022-10-04T08:10:14;6.20;;;1.80;;
59587;SDS011;45412;54.472;18.464;2022-10-04T08:16:39;5.40;;;1.40;;
59587;SDS011;45412;54.472;18.464;2022-10-04T08:23:49;8.50;;;1.70;;
59587;SDS011;45412;54.472;18.464;2022-10-04T08:30:01;4.70;;;1.10;;
59587;SDS011;45412;54.472;18.464;2022-10-04T08:33:10;5.90;;;2.00;;
59587;SDS011;45412;54.472;18.464;2022-10-04T08:39:34;7.60;;;2.60;;
59587;SDS011;45412;54.472;18.464;2022-10-04T09:02:05;5.40;;;1.30;;
59587;SDS011;45412;54.472;18.464;2022-10-04T09:05:55;5.20;;;1.10;;
59587;SDS011;45412;54.472;18.464;2022-10-04T09:25:57;4.50;;;0.90;;
59587;SDS011;45412;54.472;18.464;2022-10-04T09:36:20;6.30;;;2.00;;
59587;SDS011;45412;54.472;18.464;2022-10-04T09:45:42;5.20;;;0.90;;
59587;SDS011;45412;54.472;18.464;2022-10-04T09:55:09;5.30;;;1.30;;
59587;SDS011;45412;54.472;18.464;2022-10-04T09:58:23;6.70;;;1.80;;
59587;SDS011;45412;54.472;18.464;2022-10-04T10:08:41;6.10;;;1.20;;
59587;SDS011;45412;54.472;18.464;2022-10-04T10:12:15;4.90;;;1.00;;
59587;SDS011;45412;54.472;18.464;2022-10-04T10:39:52;5.00;;;1.00;;
59587;SDS011;45412;54.472;18.464;2022-10-04T10:49:40;4.20;;;0.90;;
59587;SDS011;45412;54.472;18.464;2022-10-04T10:56:44;4.40;;;1.10;;
59587;SDS011;45412;54.472;18.464;2022-10-04T11:09:27;5.70;;;0.90;;
59587;SDS011;45412;54.472;18.464;2022-10-04T11:13:06;6.70;;;1.20;;
59587;SDS011;45412;54.472;18.464;2022-10-04T11:16:10;5.50;;;1.10;;
59587;SDS011;45412;54.472;18.464;2022-10-04T11:32:42;3.90;;;0.90;;
59587;SDS011;45412;54.472;18.464;2022-10-04T11:39:10;3.10;;;0.60;;
59587;SDS011;45412;54.472;18.464;2022-10-04T11:51:57;5.20;;;1.00;;
59587;SDS011;45412;54.472;18.464;2022-10-04T11:58:18;4.10;;;0.80;;
59587;SDS011;45412;54.472;18.464;2022-10-04T12:05:44;5.40;;;1.00;;
59587;SDS011;45412;54.472;18.464;2022-10-04T12:31:10;5.40;;;0.80;;
59587;SDS011;45412;54.472;18.464;2022-10-04T12:34:33;4.70;;;1.10;;
59587;SDS011;45412;54.472;18.464;2022-10-04T12:40:59;6.10;;;1.10;;
59587;SDS011;45412;54.472;18.464;2022-10-04T12:48:12;5.40;;;1.20;;
59587;SDS011;45412;54.472;18.464;2022-10-04T12:54:29;4.50;;;1.00;;
59587;SDS011;45412;54.472;18.464;2022-10-04T12:57:56;4.20;;;1.00;;
59587;SDS011;45412;54.472;18.464;2022-10-04T13:00:52;4.80;;;1.10;;
59587;SDS011;45412;54.472;18.464;2022-10-04T13:13:53;3.40;;;0.80;;
59587;SDS011;45412;54.472;18.464;2022-10-04T13:36:43;4.50;;;1.00;;
59587;SDS011;45412;54.472;18.464;2022-10-04T13:50:09;4.30;;;1.00;;
59587;SDS011;45412;54.472;18.464;2022-10-04T14:00:18;5.30;;;1.00;;
59587;SDS011;45412;54.472;18.464;2022-10-04T14:40:06;5.60;;;1.30;;
59587;SDS011;45412;54.472;18.464;2022-10-04T14:46:24;5.70;;;1.20;;
59587;SDS011;45412;54.472;18.464;2022-10-04T15:24:50;5.30;;;1.10;;
59587;SDS011;45412;54.472;18.464;2022-10-04T15:27:44;5.70;;;1.40;;
59587;SDS011;45412;54.472;18.464;2022-10-04T15:30:47;6.50;;;1.70;;
59587;SDS011;45412;54.472;18.464;2022-10-04T15:50:33;8.00;;;2.00;;
59587;SDS011;45412;54.472;18.464;2022-10-04T16:02:43;8.60;;;2.40;;
59587;SDS011;45412;54.472;18.464;2022-10-04T16:15:37;9.20;;;3.50;;
59587;SDS011;45412;54.472;18.464;2022-10-04T16:24:40;8.70;;;3.10;;
59587;SDS011;45412;54.472;18.464;2022-10-04T16:31:18;9.90;;;3.30;;
59587;SDS011;45412;54.472;18.464;2022-10-04T16:37:34;10.40;;;4.00;;
59587;SDS011;45412;54.472;18.464;2022-10-04T16:43:25;9.80;;;4.10;;
59587;SDS011;45412;54.472;18.464;2022-10-04T16:46:19;14.70;;;5.10;;
59587;SDS011;45412;54.472;18.464;2022-10-04T16:49:32;12.00;;;4.30;;
59587;SDS011;45412;54.472;18.464;2022-10-04T16:52:48;11.10;;;3.90;;
59587;SDS011;45412;54.472;18.464;2022-10-04T16:56:18;9.30;;;3.30;;
59587;SDS011;45412;54.472;18.464;2022-10-04T16:59:12;10.30;;;3.30;;
59587;SDS011;45412;54.472;18.464;2022-10-04T17:25:37;16.40;;;4.70;;
59587;SDS011;45412;54.472;18.464;2022-10-04T17:32:21;14.30;;;4.00;;
59587;SDS011;45412;54.472;18.464;2022-10-04T17:35:57;13.80;;;3.60;;
59587;SDS011;45412;54.472;18.464;2022-10-04T17:39:13;11.90;;;3.60;;
59587;SDS011;45412;54.472;18.464;2022-10-04T17:42:26;15.50;;;4.10;;
59587;SDS011;45412;54.472;18.464;2022-10-04T17:48:45;11.80;;;3.80;;
59587;SDS011;45412;54.472;18.464;2022-10-04T17:52:14;12.80;;;3.60;;
59587;SDS011;45412;54.472;18.464;2022-10-04T17:55:48;14.90;;;3.80;;
59587;SDS011;45412;54.472;18.464;2022-10-04T17:58:49;14.30;;;4.40;;
59587;SDS011;45412;54.472;18.464;2022-10-04T18:01:43;12.90;;;4.10;;
59587;SDS011;45412;54.472;18.464;2022-10-04T18:04:35;11.40;;;3.70;;
59587;SDS011;45412;54.472;18.464;2022-10-04T18:07:36;14.40;;;4.80;;
59587;SDS011;45412;54.472;18.464;2022-10-04T18:10:32;13.70;;;3.20;;
59587;SDS011;45412;54.472;18.464;2022-10-04T18:13:42;12.70;;;3.40;;
59587;SDS011;45412;54.472;18.464;2022-10-04T18:20:00;15.40;;;4.00;;
59587;SDS011;45412;54.472;18.464;2022-10-04T18:23:00;12.20;;;3.30;;
59587;SDS011;45412;54.472;18.464;2022-10-04T18:26:16;13.40;;;4.20;;
59587;SDS011;45412;54.472;18.464;2022-10-04T18:29:11;11.30;;;3.40;;
59587;SDS011;45412;54.472;18.464;2022-10-04T18:32:29;12.70;;;3.60;;
59587;SDS011;45412;54.472;18.464;2022-10-04T18:35:28;11.80;;;3.50;;
59587;SDS011;45412;54.472;18.464;2022-10-04T18:38:39;15.00;;;5.10;;
59587;SDS011;45412;54.472;18.464;2022-10-04T18:41:33;15.00;;;5.50;;
59587;SDS011;45412;54.472;18.464;2022-10-04T18:44:55;14.50;;;4.20;;
59587;SDS011;45412;54.472;18.464;2022-10-04T18:48:16;13.80;;;4.80;;
59587;SDS011;45412;54.472;18.464;2022-10-04T19:02:28;16.00;;;5.20;;
59587;SDS011;45412;54.472;18.464;2022-10-04T19:05:48;14.40;;;4.50;;
59587;SDS011;45412;54.472;18.464;2022-10-04T19:08:53;15.30;;;4.20;;
59587;SDS011;45412;54.472;18.464;2022-10-04T19:12:00;11.10;;;3.40;;
59587;SDS011;45412;54.472;18.464;2022-10-04T19:18:15;14.40;;;3.70;;
59587;SDS011;45412;54.472;18.464;2022-10-04T19:21:38;15.90;;;3.90;;
59587;SDS011;45412;54.472;18.464;2022-10-04T19:24:51;13.30;;;3.50;;
59587;SDS011;45412;54.472;18.464;2022-10-04T19:28:24;12.90;;;3.20;;
59587;SDS011;45412;54.472;18.464;2022-10-04T19:31:22;13.30;;;3.50;;
59587;SDS011;45412;54.472;18.464;2022-10-04T19:34:56;18.70;;;4.20;;
59587;SDS011;45412;54.472;18.464;2022-10-04T19:48:35;11.70;;;3.10;;
59587;SDS011;45412;54.472;18.464;2022-10-04T19:51:44;9.10;;;3.20;;
59587;SDS011;45412;54.472;18.464;2022-10-04T19:54:40;12.30;;;3.50;;
59587;SDS011;45412;54.472;18.464;2022-10-04T20:02:15;8.90;;;2.90;;
59587;SDS011;45412;54.472;18.464;2022-10-04T20:05:24;10.10;;;2.80;;
59587;SDS011;45412;54.472;18.464;2022-10-04T20:08:51;13.10;;;3.20;;
59587;SDS011;45412;54.472;18.464;2022-10-04T20:11:49;9.60;;;3.00;;
59587;SDS011;45412;54.472;18.464;2022-10-04T20:17:31;11.50;;;3.30;;
59587;SDS011;45412;54.472;18.464;2022-10-04T20:26:41;13.60;;;3.20;;
59587;SDS011;45412;54.472;18.464;2022-10-04T20:35:57;13.10;;;3.20;;
59587;SDS011;45412;54.472;18.464;2022-10-04T20:38:58;11.40;;;2.80;;
59587;SDS011;45412;54.472;18.464;2022-10-04T20:42:02;13.60;;;2.90;;
59587;SDS011;45412;54.472;18.464;2022-10-04T20:47:57;15.10;;;3.40;;
59587;SDS011;45412;54.472;18.464;2022-10-04T20:50:45;9.00;;;3.00;;
59587;SDS011;45412;54.472;18.464;2022-10-04T20:53:41;11.60;;;3.60;;
59587;SDS011;45412;54.472;18.464;2022-10-04T20:56:33;14.10;;;3.50;;
59587;SDS011;45412;54.472;18.464;2022-10-04T20:59:21;16.60;;;4.30;;
59587;SDS011;45412;54.472;18.464;2022-10-04T21:02:14;9.60;;;2.80;;
59587;SDS011;45412;54.472;18.464;2022-10-04T21:05:23;10.50;;;2.80;;
59587;SDS011;45412;54.472;18.464;2022-10-04T21:08:20;14.60;;;3.50;;
59587;SDS011;45412;54.472;18.464;2022-10-04T21:11:18;12.00;;;3.10;;
59587;SDS011;45412;54.472;18.464;2022-10-04T21:14:08;16.80;;;3.50;;
59587;SDS011;45412;54.472;18.464;2022-10-04T21:20:46;11.80;;;3.00;;
59587;SDS011;45412;54.472;18.464;2022-10-04T21:23:35;11.50;;;2.80;;
59587;SDS011;45412;54.472;18.464;2022-10-04T21:26:24;10.80;;;3.00;;
59587;SDS011;45412;54.472;18.464;2022-10-04T21:29:12;10.60;;;2.80;;
59587;SDS011;45412;54.472;18.464;2022-10-04T21:32:00;13.30;;;3.00;;
59587;SDS011;45412;54.472;18.464;2022-10-04T21:34:48;8.50;;;2.20;;
59587;SDS011;45412;54.472;18.464;2022-10-04T21:37:41;11.30;;;2.50;;
59587;SDS011;45412;54.472;18.464;2022-10-04T21:40:31;11.20;;;3.10;;
59587;SDS011;45412;54.472;18.464;2022-10-04T21:43:19;10.90;;;2.80;;
59587;SDS011;45412;54.472;18.464;2022-10-04T21:46:08;10.00;;;2.80;;
59587;SDS011;45412;54.472;18.464;2022-10-04T21:48:56;11.80;;;3.00;;
59587;SDS011;45412;54.472;18.464;2022-10-04T21:51:44;10.70;;;2.60;;
59587;SDS011;45412;54.472;18.464;2022-10-04T21:54:32;14.30;;;2.50;;
59587;SDS011;45412;54.472;18.464;2022-10-04T21:57:20;11.40;;;2.80;;
59587;SDS011;45412;54.472;18.464;2022-10-04T22:00:10;9.70;;;2.60;;
59587;SDS011;45412;54.472;18.464;2022-10-04T22:02:59;11.00;;;2.50;;
59587;SDS011;45412;54.472;18.464;2022-10-04T22:05:47;10.80;;;2.40;;
59587;SDS011;45412;54.472;18.464;2022-10-04T22:08:34;12.30;;;2.80;;
59587;SDS011;45412;54.472;18.464;2022-10-04T22:11:22;8.80;;;2.10;;
59587;SDS011;45412;54.472;18.464;2022-10-04T22:14:10;11.10;;;2.50;;
59587;SDS011;45412;54.472;18.464;2022-10-04T22:16:58;8.20;;;2.00;;
59587;SDS011;45412;54.472;18.464;2022-10-04T22:19:46;11.90;;;2.60;;
59587;SDS011;45412;54.472;18.464;2022-10-04T22:22:37;12.10;;;2.80;;
59587;SDS011;45412;54.472;18.464;2022-10-04T22:25:30;13.90;;;2.60;;
59587;SDS011;45412;54.472;18.464;2022-10-04T22:28:23;14.80;;;3.90;;
59587;SDS011;45412;54.472;18.464;2022-10-04T22:31:16;12.40;;;3.00;;
59587;SDS011;45412;54.472;18.464;2022-10-04T22:34:12;11.60;;;2.90;;
59587;SDS011;45412;54.472;18.464;2022-10-04T22:37:09;11.50;;;2.80;;
59587;SDS011;45412;54.472;18.464;2022-10-04T22:39:58;10.30;;;2.30;;
59587;SDS011;45412;54.472;18.464;2022-10-04T22:42:50;11.10;;;2.30;;
59587;SDS011;45412;54.472;18.464;2022-10-04T22:45:39;9.10;;;2.40;;
59587;SDS011;45412;54.472;18.464;2022-10-04T22:48:30;10.80;;;2.70;;
59587;SDS011;45412;54.472;18.464;2022-10-04T22:51:18;12.10;;;2.40;;
59587;SDS011;45412;54.472;18.464;2022-10-04T22:54:11;8.90;;;2.60;;
59587;SDS011;45412;54.472;18.464;2022-10-04T22:57:02;11.50;;;3.10;;
59587;SDS011;45412;54.472;18.464;2022-10-04T22:59:51;11.00;;;3.20;;
59587;SDS011;45412;54.472;18.464;2022-10-04T23:02:39;9.10;;;2.70;;
59587;SDS011;45412;54.472;18.464;2022-10-04T23:05:27;10.10;;;2.60;;
59587;SDS011;45412;54.472;18.464;2022-10-04T23:08:15;8.50;;;2.50;;
59587;SDS011;45412;54.472;18.464;2022-10-04T23:11:04;9.80;;;3.30;;
59587;SDS011;45412;54.472;18.464;2022-10-04T23:13:52;10.70;;;2.70;;
59587;SDS011;45412;54.472;18.464;2022-10-04T23:16:43;10.70;;;2.70;;
59587;SDS011;45412;54.472;18.464;2022-10-04T23:19:32;8.60;;;2.30;;
59587;SDS011;45412;54.472;18.464;2022-10-04T23:22:25;9.90;;;2.60;;
59587;SDS011;45412;54.472;18.464;2022-10-04T23:28:11;8.90;;;2.50;;
59587;SDS011;45412;54.472;18.464;2022-10-04T23:31:04;10.40;;;2.70;;
59587;SDS011;45412;54.472;18.464;2022-10-04T23:34:41;10.20;;;2.60;;
59587;SDS011;45412;54.472;18.464;2022-10-04T23:37:31;11.30;;;2.90;;
59587;SDS011;45412;54.472;18.464;2022-10-04T23:40:20;8.30;;;2.60;;
59587;SDS011;45412;54.472;18.464;2022-10-04T23:43:21;11.50;;;2.80;;
59587;SDS011;45412;54.472;18.464;2022-10-04T23:46:19;10.90;;;2.80;;
59587;SDS011;45412;54.472;18.464;2022-10-04T23:49:16;11.00;;;3.00;;
59587;SDS011;45412;54.472;18.464;2022-10-04T23:52:09;9.20;;;2.50;;
59587;SDS011;45412;54.472;18.464;2022-10-04T23:55:22;10.70;;;3.10;;
59587;SDS011;45412;54.472;18.464;2022-10-04T23:58:22;16.50;;;3.50;;
